createdAt,value
2022-10-25T00:00:30.131Z,15.60
2022-10-25T00:02:57.470Z,15.80
2022-10-25T00:05:26.330Z,15.90
2022-10-25T00:10:35.413Z,15.80
2022-10-25T00:13:03.645Z,15.80
2022-10-25T00:15:36.293Z,15.80
2022-10-25T00:18:06.029Z,15.70
2022-10-25T00:20:36.674Z,15.70
2022-10-25T00:23:04.301Z,15.60
2022-10-25T00:25:36.770Z,15.50
2022-10-25T00:28:11.833Z,15.40
2022-10-25T00:30:44.011Z,15.30
2022-10-25T00:38:16.780Z,15.20
2022-10-25T00:40:43.661Z,15.20
2022-10-25T00:43:11.762Z,15.20
2022-10-25T00:45:39.232Z,15.30
2022-10-25T00:48:11.511Z,15.20
2022-10-25T00:50:49.910Z,15.30
2022-10-25T00:53:21.302Z,15.20
2022-10-25T00:59:49.222Z,15.10
2022-10-25T01:02:19.067Z,15.00
2022-10-25T01:04:46.461Z,14.90
2022-10-25T01:07:14.092Z,14.90
2022-10-25T01:09:42.266Z,14.90
2022-10-25T01:12:09.540Z,14.90
2022-10-25T01:14:39.340Z,14.90
2022-10-25T01:20:53.052Z,15.00
2022-10-25T01:23:45.622Z,14.80
2022-10-25T01:26:47.190Z,15.00
2022-10-25T01:29:41.533Z,15.00
2022-10-25T01:32:18.149Z,15.10
2022-10-25T01:34:50.311Z,15.10
2022-10-25T01:40:13.522Z,15.30
2022-10-25T01:42:49.522Z,15.20
2022-10-25T01:45:22.916Z,15.00
2022-10-25T01:47:55.252Z,15.20
2022-10-25T01:50:26.731Z,15.00
2022-10-25T01:55:29.440Z,15.10
2022-10-25T02:02:12.254Z,15.00
2022-10-25T02:04:47.541Z,14.90
2022-10-25T02:07:24.088Z,15.00
2022-10-25T02:10:02.887Z,14.90
2022-10-25T02:12:42.469Z,15.10
2022-10-25T02:15:13.695Z,15.20
2022-10-25T02:17:47.062Z,15.10
2022-10-25T02:23:03.342Z,14.70
2022-10-25T02:25:32.341Z,14.90
2022-10-25T02:28:02.666Z,14.90
2022-10-25T02:30:32.530Z,14.80
2022-10-25T02:32:59.852Z,14.90
2022-10-25T02:35:27.700Z,15.10
2022-10-25T02:37:54.610Z,15.20
2022-10-25T02:45:28.242Z,15.20
2022-10-25T02:47:56.061Z,15.40
2022-10-25T02:50:23.965Z,15.50
2022-10-25T02:52:51.593Z,15.50
2022-10-25T02:55:19.130Z,15.40
2022-10-25T02:57:46.540Z,15.40
2022-10-25T03:00:15.522Z,15.40
2022-10-25T03:02:45.055Z,15.40
2022-10-25T03:11:06.400Z,15.20
2022-10-25T03:13:34.089Z,15.00
2022-10-25T03:16:03.799Z,14.90
2022-10-25T03:18:31.900Z,15.00
2022-10-25T03:21:00.872Z,14.80
2022-10-25T03:23:28.789Z,14.70
2022-10-25T03:25:57.943Z,14.70
2022-10-25T03:28:27.504Z,14.80
2022-10-25T03:36:00.724Z,14.60
2022-10-25T03:38:27.930Z,14.60
2022-10-25T03:40:55.178Z,14.60
2022-10-25T03:45:55.452Z,14.60
2022-10-25T03:48:22.552Z,14.70
2022-10-25T03:50:50.372Z,14.70
2022-10-25T03:57:42.872Z,14.70
2022-10-25T04:00:11.151Z,14.70
2022-10-25T04:02:38.884Z,14.70
2022-10-25T04:05:07.971Z,14.60
2022-10-25T04:07:36.922Z,14.60
2022-10-25T04:10:05.103Z,14.40
2022-10-25T04:12:32.402Z,14.50
2022-10-25T04:15:01.320Z,14.70
2022-10-25T04:25:09.282Z,14.60
2022-10-25T04:27:36.612Z,14.60
2022-10-25T04:30:04.213Z,14.70
2022-10-25T04:32:31.403Z,14.70
2022-10-25T04:34:58.712Z,14.50
2022-10-25T04:37:25.540Z,14.60
2022-10-25T04:44:19.341Z,14.70
2022-10-25T04:46:48.844Z,14.60
2022-10-25T04:49:17.050Z,14.70
2022-10-25T04:51:44.559Z,14.60
2022-10-25T04:54:13.190Z,14.60
2022-10-25T04:56:40.682Z,14.50
2022-10-25T04:59:09.265Z,14.40
2022-10-25T05:01:38.136Z,14.50
2022-10-25T05:07:08.041Z,14.40
2022-10-25T05:09:35.532Z,14.50
2022-10-25T05:12:02.935Z,14.40
2022-10-25T05:14:33.560Z,14.30
2022-10-25T05:17:01.431Z,14.20
2022-10-25T05:19:29.343Z,14.20
2022-10-25T05:21:56.897Z,14.20
2022-10-25T05:27:25.822Z,14.30
2022-10-25T05:29:53.020Z,14.50
2022-10-25T05:32:20.480Z,14.60
2022-10-25T05:34:47.755Z,14.60
2022-10-25T05:37:15.145Z,14.70
2022-10-25T05:39:42.475Z,14.70
2022-10-25T05:42:09.926Z,14.60
2022-10-25T05:47:37.992Z,14.40
2022-10-25T05:50:05.796Z,14.50
2022-10-25T05:52:32.982Z,14.50
2022-10-25T05:55:00.441Z,14.60
2022-10-25T05:57:27.825Z,14.80
2022-10-25T05:59:55.234Z,14.80
2022-10-25T06:02:22.780Z,14.90
2022-10-25T06:05:06.161Z,14.70
2022-10-25T06:11:45.459Z,14.60
2022-10-25T06:14:13.372Z,14.70
2022-10-25T06:16:41.659Z,14.60
2022-10-25T06:19:09.162Z,14.60
2022-10-25T06:21:38.042Z,14.40
2022-10-25T06:24:06.638Z,14.30
2022-10-25T06:26:33.992Z,14.30
2022-10-25T06:33:31.742Z,14.40
2022-10-25T06:36:01.164Z,14.60
2022-10-25T06:38:29.073Z,14.90
2022-10-25T06:40:59.549Z,15.00
2022-10-25T06:43:28.340Z,14.80
2022-10-25T06:45:56.842Z,15.00
2022-10-25T06:48:24.206Z,15.10
2022-10-25T06:53:58.839Z,14.90
2022-10-25T06:56:27.319Z,15.00
2022-10-25T06:58:55.222Z,14.90
2022-10-25T07:01:24.525Z,14.90
2022-10-25T07:03:53.869Z,15.10
2022-10-25T07:06:24.476Z,15.10
2022-10-25T07:08:55.135Z,15.30
2022-10-25T07:14:03.684Z,15.30
2022-10-25T07:16:31.260Z,15.50
2022-10-25T07:18:59.385Z,15.30
2022-10-25T07:21:27.474Z,15.40
2022-10-25T07:23:54.797Z,15.30
2022-10-25T07:26:24.400Z,15.10
2022-10-25T07:28:53.986Z,15.10
2022-10-25T07:35:35.506Z,15.10
2022-10-25T07:38:09.253Z,15.00
2022-10-25T07:40:36.863Z,15.00
2022-10-25T07:43:04.377Z,14.90
2022-10-25T07:45:31.822Z,14.90
2022-10-25T07:48:02.127Z,15.10
2022-10-25T07:50:30.840Z,15.30
2022-10-25T07:55:34.101Z,15.20
2022-10-25T07:58:04.192Z,15.50
2022-10-25T08:00:34.643Z,15.50
2022-10-25T08:03:01.943Z,15.70
2022-10-25T08:05:31.402Z,15.50
2022-10-25T08:07:58.782Z,15.70
2022-10-25T08:10:26.255Z,15.60
2022-10-25T08:17:17.570Z,16.20
2022-10-25T08:19:50.152Z,16.20
2022-10-25T08:22:20.204Z,16.20
2022-10-25T08:24:48.602Z,16.00
2022-10-25T08:27:16.015Z,16.00
2022-10-25T08:29:43.150Z,16.10
2022-10-25T08:32:11.256Z,16.50
2022-10-25T08:39:02.548Z,15.90
2022-10-25T08:41:44.632Z,16.20
2022-10-25T08:44:21.613Z,16.20
2022-10-25T08:46:56.642Z,16.40
2022-10-25T08:49:31.606Z,16.40
2022-10-25T08:52:02.622Z,16.50
2022-10-25T08:54:37.198Z,16.40
2022-10-25T09:04:05.200Z,16.50
2022-10-25T09:06:40.140Z,16.50
2022-10-25T09:09:22.610Z,16.70
2022-10-25T09:12:06.050Z,16.80
2022-10-25T09:14:44.870Z,17.10
2022-10-25T09:17:18.981Z,17.20
2022-10-25T09:20:01.070Z,17.40
2022-10-25T09:22:30.495Z,17.50
2022-10-25T09:30:07.439Z,17.60
2022-10-25T09:32:38.952Z,17.60
2022-10-25T09:35:18.512Z,17.70
2022-10-25T09:37:49.906Z,17.80
2022-10-25T09:40:22.354Z,18.10
2022-10-25T09:42:54.307Z,18.10
2022-10-25T09:45:34.295Z,18.00
2022-10-25T09:53:19.000Z,17.40
2022-10-25T09:55:54.382Z,17.70
2022-10-25T09:58:24.483Z,17.70
2022-10-25T10:00:55.320Z,17.70
2022-10-25T10:03:28.181Z,17.70
2022-10-25T10:05:58.925Z,17.80
2022-10-25T10:08:28.589Z,17.80
2022-10-25T10:16:06.673Z,17.90
2022-10-25T10:18:35.990Z,17.90
2022-10-25T10:21:15.689Z,18.00
2022-10-25T10:23:59.613Z,17.90
2022-10-25T10:26:32.382Z,17.90
2022-10-25T10:29:16.691Z,17.70
2022-10-25T10:31:48.274Z,17.90
2022-10-25T10:38:52.993Z,18.00
2022-10-25T10:41:26.881Z,18.20
2022-10-25T10:44:09.610Z,17.80
2022-10-25T10:46:37.020Z,17.90
2022-10-25T10:49:05.443Z,17.90
2022-10-25T10:51:44.104Z,17.40
2022-10-25T10:54:23.849Z,17.50
2022-10-25T11:02:10.882Z,17.80
2022-10-25T11:04:50.272Z,18.10
2022-10-25T11:07:27.316Z,17.50
2022-10-25T11:10:11.743Z,17.60
2022-10-25T11:12:41.770Z,17.40
2022-10-25T11:15:11.545Z,17.30
2022-10-25T11:17:43.500Z,17.20
2022-10-25T11:24:37.664Z,17.40
2022-10-25T11:27:18.059Z,17.50
2022-10-25T11:30:04.122Z,17.70
2022-10-25T11:33:08.001Z,18.00
2022-10-25T11:35:53.589Z,18.20
2022-10-25T11:38:28.660Z,17.90
2022-10-25T11:44:08.282Z,18.20
2022-10-25T11:46:42.493Z,18.20
2022-10-25T11:49:32.279Z,18.20
2022-10-25T11:52:32.784Z,17.70
2022-10-25T11:55:23.076Z,17.50
2022-10-25T11:57:58.147Z,17.40
2022-10-25T12:03:50.440Z,17.60
2022-10-25T12:06:25.178Z,18.00
2022-10-25T12:09:03.852Z,18.00
2022-10-25T12:11:34.303Z,18.10
2022-10-25T12:14:07.901Z,17.90
2022-10-25T12:16:36.763Z,18.00
2022-10-25T12:19:13.015Z,18.30
2022-10-25T12:26:53.060Z,18.80
2022-10-25T12:29:24.749Z,18.70
2022-10-25T12:31:56.272Z,19.10
2022-10-25T12:34:27.880Z,19.20
2022-10-25T12:37:00.963Z,19.00
2022-10-25T12:39:38.741Z,19.00
2022-10-25T12:42:15.279Z,19.10
2022-10-25T12:49:43.020Z,19.50
2022-10-25T12:52:50.830Z,19.00
2022-10-25T12:55:43.300Z,19.20
2022-10-25T12:58:33.382Z,19.10
2022-10-25T13:01:22.936Z,19.10
2022-10-25T13:07:22.113Z,19.30
2022-10-25T13:09:50.593Z,19.60
2022-10-25T13:12:30.021Z,19.70
2022-10-25T13:15:00.453Z,19.40
2022-10-25T13:18:06.451Z,19.10
2022-10-25T13:20:49.919Z,19.00
2022-10-25T13:32:19.390Z,19.40
2022-10-25T13:34:47.620Z,19.00
2022-10-25T13:37:38.386Z,18.90
2022-10-25T13:40:15.502Z,18.50
2022-10-25T13:42:44.929Z,18.30
2022-10-25T13:45:22.662Z,18.40
2022-10-25T13:47:56.001Z,18.60
2022-10-25T13:55:37.512Z,18.80
2022-10-25T13:58:47.753Z,19.10
2022-10-25T14:02:11.453Z,19.20
2022-10-25T14:04:40.142Z,19.10
2022-10-25T14:07:41.742Z,19.10
2022-10-25T14:10:21.658Z,19.00
2022-10-25T14:18:17.503Z,19.20
2022-10-25T14:20:48.096Z,18.90
2022-10-25T14:23:19.230Z,18.90
2022-10-25T14:25:55.583Z,19.00
2022-10-25T14:28:26.860Z,19.10
2022-10-25T14:30:56.860Z,19.00
2022-10-25T14:33:28.280Z,19.20
2022-10-25T14:39:03.562Z,19.00
2022-10-25T14:41:33.261Z,18.90
2022-10-25T14:44:02.434Z,18.90
2022-10-25T14:46:31.409Z,19.10
2022-10-25T14:49:00.202Z,18.90
2022-10-25T14:51:31.302Z,19.00
2022-10-25T14:54:02.964Z,18.70
2022-10-25T14:59:51.070Z,18.70
2022-10-25T15:02:22.009Z,18.80
2022-10-25T15:04:52.064Z,18.50
2022-10-25T15:07:24.744Z,18.60
2022-10-25T15:09:54.363Z,18.50
2022-10-25T15:12:26.646Z,18.50
2022-10-25T15:15:00.654Z,18.60
2022-10-25T15:22:46.345Z,18.60
2022-10-25T15:25:21.141Z,18.50
2022-10-25T15:27:52.044Z,18.40
2022-10-25T15:30:37.639Z,18.30
2022-10-25T15:33:13.135Z,18.20
2022-10-25T15:35:58.150Z,18.20
2022-10-25T15:39:05.538Z,18.30
2022-10-25T15:41:27.410Z,18.30
2022-10-25T15:43:58.090Z,18.30
2022-10-25T15:51:41.245Z,18.40
2022-10-25T15:54:14.633Z,18.00
2022-10-25T15:56:42.432Z,18.00
2022-10-25T15:59:10.790Z,18.00
2022-10-25T16:01:40.771Z,17.90
2022-10-25T16:04:13.340Z,17.90
2022-10-25T16:06:42.183Z,17.90
2022-10-25T16:13:38.743Z,17.80
2022-10-25T16:16:21.823Z,17.80
2022-10-25T16:18:56.889Z,17.60
2022-10-25T16:21:27.680Z,17.60
2022-10-25T16:23:55.639Z,17.50
2022-10-25T16:26:26.608Z,17.50
2022-10-25T16:31:40.534Z,17.40
2022-10-25T16:34:09.572Z,17.40
2022-10-25T16:36:37.471Z,17.50
2022-10-25T16:39:05.927Z,17.50
2022-10-25T16:41:36.099Z,17.40
2022-10-25T16:44:03.741Z,17.30
2022-10-25T16:46:33.141Z,17.20
2022-10-25T16:51:46.212Z,17.10
2022-10-25T16:54:26.050Z,17.00
2022-10-25T16:57:04.523Z,16.90
2022-10-25T16:59:34.239Z,16.90
2022-10-25T17:02:05.298Z,16.90
2022-10-25T17:04:34.920Z,16.80
2022-10-25T17:07:04.026Z,16.90
2022-10-25T17:09:32.126Z,16.90
2022-10-25T17:12:00.390Z,16.80
2022-10-25T17:19:14.263Z,16.90
2022-10-25T17:21:42.794Z,16.90
2022-10-25T17:24:12.562Z,16.80
2022-10-25T17:26:44.990Z,16.80
2022-10-25T17:29:18.131Z,16.80
2022-10-25T17:31:47.439Z,16.80
2022-10-25T17:34:17.430Z,16.60
2022-10-25T17:41:29.302Z,16.70
2022-10-25T17:43:57.483Z,16.60
2022-10-25T17:46:28.597Z,16.50
2022-10-25T17:48:58.033Z,16.50
2022-10-25T17:51:25.466Z,16.40
2022-10-25T17:53:53.875Z,16.40
2022-10-25T17:56:23.414Z,16.30
2022-10-25T18:03:53.643Z,16.40
2022-10-25T18:08:54.232Z,16.30
2022-10-25T18:11:25.515Z,16.30
2022-10-25T18:13:54.337Z,16.20
2022-10-25T18:16:25.675Z,16.20
2022-10-25T18:22:09.048Z,16.30
2022-10-25T18:24:39.518Z,16.40
2022-10-25T18:27:10.284Z,16.30
2022-10-25T18:29:42.838Z,16.30
2022-10-25T18:32:11.717Z,16.50
2022-10-25T18:34:41.800Z,16.40
2022-10-25T18:37:11.367Z,16.30
2022-10-25T18:43:55.035Z,16.30
2022-10-25T18:46:30.661Z,16.10
2022-10-25T18:48:58.238Z,16.00
2022-10-25T18:51:28.218Z,16.00
2022-10-25T18:53:55.941Z,15.90
2022-10-25T18:56:25.727Z,15.60
2022-10-25T18:58:56.780Z,15.50
2022-10-25T19:05:40.930Z,15.50
2022-10-25T19:08:11.731Z,15.70
2022-10-25T19:10:40.900Z,15.20
2022-10-25T19:13:19.588Z,15.30
2022-10-25T19:15:50.630Z,15.30
2022-10-25T19:18:19.458Z,14.70
2022-10-25T19:20:50.968Z,14.40
2022-10-25T19:23:19.698Z,14.40
2022-10-25T19:30:58.848Z,14.70
2022-10-25T19:33:28.988Z,14.20
2022-10-25T19:36:03.339Z,14.20
2022-10-25T19:38:31.980Z,14.30
2022-10-25T19:41:01.096Z,14.40
2022-10-25T19:43:30.093Z,14.40
2022-10-25T19:46:01.176Z,14.50
2022-10-25T19:51:12.658Z,14.60
2022-10-25T19:53:41.308Z,14.90
2022-10-25T19:56:14.268Z,14.90
2022-10-25T19:58:42.381Z,15.10
2022-10-25T20:01:12.781Z,15.00
2022-10-25T20:03:48.742Z,15.20
2022-10-25T20:06:24.252Z,15.20
2022-10-25T20:11:37.561Z,15.20
2022-10-25T20:14:13.150Z,15.20
2022-10-25T20:16:44.361Z,15.20
2022-10-25T20:19:14.195Z,15.30
2022-10-25T20:21:42.695Z,15.30
2022-10-25T20:24:14.058Z,15.30
2022-10-25T20:26:48.898Z,15.10
2022-10-25T20:34:21.427Z,15.10
2022-10-25T20:36:50.462Z,15.20
2022-10-25T20:39:18.340Z,15.10
2022-10-25T20:41:46.643Z,15.00
2022-10-25T20:44:14.141Z,15.20
2022-10-25T20:46:43.426Z,15.10
2022-10-25T20:49:10.987Z,15.10
2022-10-25T20:56:05.650Z,15.10
2022-10-25T20:58:36.480Z,15.10
2022-10-25T21:01:05.144Z,15.10
2022-10-25T21:03:36.728Z,15.10
2022-10-25T21:06:10.026Z,15.00
2022-10-25T21:08:38.647Z,15.00
2022-10-25T21:11:15.494Z,15.00
2022-10-25T21:16:32.309Z,15.00
2022-10-25T21:19:03.619Z,15.00
2022-10-25T21:21:32.930Z,15.00
2022-10-25T21:24:02.392Z,15.10
2022-10-25T21:26:30.544Z,14.90
2022-10-25T21:28:58.180Z,15.00
2022-10-25T21:31:27.232Z,15.00
2022-10-25T21:40:40.900Z,15.10
2022-10-25T21:43:09.521Z,14.90
2022-10-25T21:45:42.088Z,14.90
2022-10-25T21:48:09.797Z,14.80
2022-10-25T21:50:38.748Z,14.90
2022-10-25T21:53:06.282Z,14.90
2022-10-25T21:55:34.941Z,14.80
2022-10-25T21:58:04.830Z,14.80
2022-10-25T22:05:43.908Z,14.70
2022-10-25T22:08:11.170Z,14.70
2022-10-25T22:10:38.411Z,14.70
2022-10-25T22:13:06.434Z,14.80
2022-10-25T22:15:36.969Z,14.70
2022-10-25T22:18:05.368Z,14.70
2022-10-25T22:20:32.618Z,14.70
2022-10-25T22:25:41.672Z,14.60
2022-10-25T22:28:08.651Z,14.70
2022-10-25T22:30:37.000Z,14.60
2022-10-25T22:33:04.318Z,14.70
2022-10-25T22:35:34.650Z,14.70
2022-10-25T22:38:02.240Z,14.60
2022-10-25T22:40:38.658Z,14.60
2022-10-25T22:47:35.716Z,14.60
2022-10-25T22:50:03.983Z,14.50
2022-10-25T22:52:31.471Z,14.50
2022-10-25T22:54:59.074Z,14.40
2022-10-25T22:57:30.508Z,14.50
2022-10-25T22:59:57.817Z,14.60
2022-10-25T23:02:25.168Z,14.70
2022-10-25T23:12:33.826Z,14.70
2022-10-25T23:15:01.341Z,14.70
2022-10-25T23:17:28.620Z,14.50
2022-10-25T23:19:59.148Z,14.50
2022-10-25T23:22:28.091Z,14.50
2022-10-25T23:24:56.332Z,14.70
2022-10-25T23:27:24.300Z,14.60
2022-10-25T23:34:28.580Z,14.70
2022-10-25T23:36:56.210Z,14.70
2022-10-25T23:39:23.878Z,14.70
2022-10-25T23:41:56.150Z,14.60
2022-10-25T23:44:24.140Z,14.60
2022-10-25T23:46:52.080Z,14.60
2022-10-25T23:49:19.960Z,14.40
2022-10-25T23:51:48.486Z,14.60
2022-10-25T23:59:21.621Z,14.60
